sensor_id;sensor_type;location;lat;lon;timestamp;P1;durP1;ratioP1;P2;durP2;ratioP2
20367;SDS011;10343;52.402;9.796;2024-03-22T00:02:23;11.63;;;2.72;;
20367;SDS011;10343;52.402;9.796;2024-03-22T00:04:50;12.55;;;2.58;;
20367;SDS011;10343;52.402;9.796;2024-03-22T00:07:18;12.57;;;2.47;;
20367;SDS011;10343;52.402;9.796;2024-03-22T00:09:46;14.68;;;3.17;;
20367;SDS011;10343;52.402;9.796;2024-03-22T00:12:13;11.55;;;3.08;;
20367;SDS011;10343;52.402;9.796;2024-03-22T00:14:40;15.10;;;4.28;;
20367;SDS011;10343;52.402;9.796;2024-03-22T00:17:07;20.38;;;3.42;;
20367;SDS011;10343;52.402;9.796;2024-03-22T00:19:34;16.70;;;3.50;;
20367;SDS011;10343;52.402;9.796;2024-03-22T00:22:02;16.67;;;4.68;;
20367;SDS011;10343;52.402;9.796;2024-03-22T00:24:29;13.80;;;3.65;;
20367;SDS011;10343;52.402;9.796;2024-03-22T00:26:56;17.15;;;5.22;;
20367;SDS011;10343;52.402;9.796;2024-03-22T00:29:22;17.52;;;4.60;;
20367;SDS011;10343;52.402;9.796;2024-03-22T00:31:50;18.00;;;3.63;;
20367;SDS011;10343;52.402;9.796;2024-03-22T00:34:17;17.30;;;4.13;;
20367;SDS011;10343;52.402;9.796;2024-03-22T00:36:45;15.43;;;4.88;;
20367;SDS011;10343;52.402;9.796;2024-03-22T00:39:11;17.00;;;5.05;;
20367;SDS011;10343;52.402;9.796;2024-03-22T00:41:40;22.65;;;6.72;;
20367;SDS011;10343;52.402;9.796;2024-03-22T00:44:07;20.42;;;5.10;;
20367;SDS011;10343;52.402;9.796;2024-03-22T00:46:34;17.08;;;5.53;;
20367;SDS011;10343;52.402;9.796;2024-03-22T00:49:01;20.98;;;6.05;;
20367;SDS011;10343;52.402;9.796;2024-03-22T00:51:28;17.98;;;6.72;;
20367;SDS011;10343;52.402;9.796;2024-03-22T00:53:54;20.27;;;6.47;;
20367;SDS011;10343;52.402;9.796;2024-03-22T00:56:22;19.92;;;6.07;;
20367;SDS011;10343;52.402;9.796;2024-03-22T00:58:50;20.15;;;7.07;;
20367;SDS011;10343;52.402;9.796;2024-03-22T01:01:17;18.13;;;6.93;;
20367;SDS011;10343;52.402;9.796;2024-03-22T01:03:43;17.38;;;7.10;;
20367;SDS011;10343;52.402;9.796;2024-03-22T01:06:10;22.38;;;7.70;;
20367;SDS011;10343;52.402;9.796;2024-03-22T01:08:37;21.35;;;8.38;;
20367;SDS011;10343;52.402;9.796;2024-03-22T01:11:04;20.95;;;8.70;;
20367;SDS011;10343;52.402;9.796;2024-03-22T01:13:30;23.80;;;8.32;;
20367;SDS011;10343;52.402;9.796;2024-03-22T01:15:59;23.33;;;9.75;;
20367;SDS011;10343;52.402;9.796;2024-03-22T01:18:25;28.85;;;8.65;;
20367;SDS011;10343;52.402;9.796;2024-03-22T01:20:53;24.85;;;10.93;;
20367;SDS011;10343;52.402;9.796;2024-03-22T01:23:20;29.25;;;12.02;;
20367;SDS011;10343;52.402;9.796;2024-03-22T01:25:47;24.23;;;11.32;;
20367;SDS011;10343;52.402;9.796;2024-03-22T01:28:13;34.15;;;12.02;;
20367;SDS011;10343;52.402;9.796;2024-03-22T01:30:42;27.02;;;11.55;;
20367;SDS011;10343;52.402;9.796;2024-03-22T01:33:10;25.88;;;10.85;;
20367;SDS011;10343;52.402;9.796;2024-03-22T01:35:37;25.63;;;12.57;;
20367;SDS011;10343;52.402;9.796;2024-03-22T01:38:04;28.20;;;11.70;;
20367;SDS011;10343;52.402;9.796;2024-03-22T01:40:31;27.95;;;12.52;;
20367;SDS011;10343;52.402;9.796;2024-03-22T01:42:57;27.25;;;11.75;;
20367;SDS011;10343;52.402;9.796;2024-03-22T01:45:24;28.25;;;11.98;;
20367;SDS011;10343;52.402;9.796;2024-03-22T01:47:51;27.00;;;11.63;;
20367;SDS011;10343;52.402;9.796;2024-03-22T01:50:21;27.17;;;12.45;;
20367;SDS011;10343;52.402;9.796;2024-03-22T01:52:47;29.77;;;13.32;;
20367;SDS011;10343;52.402;9.796;2024-03-22T01:55:15;31.73;;;11.93;;
20367;SDS011;10343;52.402;9.796;2024-03-22T01:57:45;29.30;;;12.05;;
20367;SDS011;10343;52.402;9.796;2024-03-22T02:00:15;26.88;;;11.98;;
20367;SDS011;10343;52.402;9.796;2024-03-22T02:02:41;24.80;;;11.57;;
20367;SDS011;10343;52.402;9.796;2024-03-22T02:05:12;28.20;;;12.32;;
20367;SDS011;10343;52.402;9.796;2024-03-22T02:07:40;29.90;;;12.90;;
20367;SDS011;10343;52.402;9.796;2024-03-22T02:10:08;27.30;;;11.70;;
20367;SDS011;10343;52.402;9.796;2024-03-22T02:12:36;27.73;;;11.65;;
20367;SDS011;10343;52.402;9.796;2024-03-22T02:15:04;25.88;;;12.00;;
20367;SDS011;10343;52.402;9.796;2024-03-22T02:17:31;26.38;;;11.82;;
20367;SDS011;10343;52.402;9.796;2024-03-22T02:19:58;26.10;;;11.90;;
20367;SDS011;10343;52.402;9.796;2024-03-22T02:22:25;26.15;;;10.85;;
20367;SDS011;10343;52.402;9.796;2024-03-22T02:24:54;26.90;;;11.15;;
20367;SDS011;10343;52.402;9.796;2024-03-22T02:27:20;27.35;;;12.52;;
20367;SDS011;10343;52.402;9.796;2024-03-22T02:29:47;31.30;;;12.85;;
20367;SDS011;10343;52.402;9.796;2024-03-22T02:32:15;32.72;;;14.07;;
20367;SDS011;10343;52.402;9.796;2024-03-22T02:34:42;25.95;;;11.60;;
20367;SDS011;10343;52.402;9.796;2024-03-22T02:37:08;34.58;;;13.15;;
20367;SDS011;10343;52.402;9.796;2024-03-22T02:39:35;30.90;;;12.40;;
20367;SDS011;10343;52.402;9.796;2024-03-22T02:42:03;34.50;;;12.63;;
20367;SDS011;10343;52.402;9.796;2024-03-22T02:44:30;28.17;;;12.13;;
20367;SDS011;10343;52.402;9.796;2024-03-22T02:46:56;31.02;;;12.35;;
20367;SDS011;10343;52.402;9.796;2024-03-22T02:49:24;32.40;;;13.73;;
20367;SDS011;10343;52.402;9.796;2024-03-22T02:51:50;27.23;;;12.20;;
20367;SDS011;10343;52.402;9.796;2024-03-22T02:54:18;34.15;;;14.82;;
20367;SDS011;10343;52.402;9.796;2024-03-22T02:56:44;26.73;;;12.05;;
20367;SDS011;10343;52.402;9.796;2024-03-22T02:59:12;30.23;;;12.25;;
20367;SDS011;10343;52.402;9.796;2024-03-22T03:01:39;32.58;;;14.05;;
20367;SDS011;10343;52.402;9.796;2024-03-22T03:04:06;28.35;;;12.60;;
20367;SDS011;10343;52.402;9.796;2024-03-22T03:06:33;33.80;;;13.82;;
20367;SDS011;10343;52.402;9.796;2024-03-22T03:09:01;29.50;;;13.48;;
20367;SDS011;10343;52.402;9.796;2024-03-22T03:11:27;30.27;;;13.10;;
20367;SDS011;10343;52.402;9.796;2024-03-22T03:13:54;34.53;;;14.73;;
20367;SDS011;10343;52.402;9.796;2024-03-22T03:16:22;33.97;;;14.43;;
20367;SDS011;10343;52.402;9.796;2024-03-22T03:18:49;33.95;;;14.00;;
20367;SDS011;10343;52.402;9.796;2024-03-22T03:21:15;32.88;;;14.38;;
20367;SDS011;10343;52.402;9.796;2024-03-22T03:23:42;29.88;;;13.15;;
20367;SDS011;10343;52.402;9.796;2024-03-22T03:26:08;32.33;;;13.43;;
20367;SDS011;10343;52.402;9.796;2024-03-22T03:28:35;34.85;;;15.32;;
20367;SDS011;10343;52.402;9.796;2024-03-22T03:31:01;33.67;;;15.63;;
20367;SDS011;10343;52.402;9.796;2024-03-22T03:33:29;39.85;;;14.05;;
20367;SDS011;10343;52.402;9.796;2024-03-22T03:35:56;34.50;;;14.23;;
20367;SDS011;10343;52.402;9.796;2024-03-22T03:38:23;31.52;;;13.02;;
20367;SDS011;10343;52.402;9.796;2024-03-22T03:40:49;36.53;;;14.65;;
20367;SDS011;10343;52.402;9.796;2024-03-22T03:43:16;38.05;;;15.45;;
20367;SDS011;10343;52.402;9.796;2024-03-22T03:45:42;35.97;;;16.27;;
20367;SDS011;10343;52.402;9.796;2024-03-22T03:48:09;35.38;;;15.68;;
20367;SDS011;10343;52.402;9.796;2024-03-22T03:50:37;35.75;;;15.57;;
20367;SDS011;10343;52.402;9.796;2024-03-22T03:53:04;36.53;;;14.23;;
20367;SDS011;10343;52.402;9.796;2024-03-22T03:55:30;36.47;;;15.43;;
20367;SDS011;10343;52.402;9.796;2024-03-22T03:57:57;32.60;;;13.68;;
20367;SDS011;10343;52.402;9.796;2024-03-22T04:00:24;37.55;;;14.40;;
20367;SDS011;10343;52.402;9.796;2024-03-22T04:02:51;32.92;;;13.82;;
20367;SDS011;10343;52.402;9.796;2024-03-22T04:05:17;33.22;;;13.82;;
20367;SDS011;10343;52.402;9.796;2024-03-22T04:07:48;37.28;;;15.23;;
20367;SDS011;10343;52.402;9.796;2024-03-22T04:10:14;39.85;;;16.90;;
20367;SDS011;10343;52.402;9.796;2024-03-22T04:12:41;35.63;;;14.70;;
20367;SDS011;10343;52.402;9.796;2024-03-22T04:15:07;35.40;;;14.98;;
20367;SDS011;10343;52.402;9.796;2024-03-22T04:17:35;36.67;;;15.38;;
20367;SDS011;10343;52.402;9.796;2024-03-22T04:20:02;37.95;;;15.68;;
20367;SDS011;10343;52.402;9.796;2024-03-22T04:22:29;36.92;;;15.57;;
20367;SDS011;10343;52.402;9.796;2024-03-22T04:24:57;37.53;;;15.20;;
20367;SDS011;10343;52.402;9.796;2024-03-22T04:27:24;40.15;;;16.27;;
20367;SDS011;10343;52.402;9.796;2024-03-22T04:29:50;35.88;;;14.18;;
20367;SDS011;10343;52.402;9.796;2024-03-22T04:32:17;41.22;;;15.63;;
20367;SDS011;10343;52.402;9.796;2024-03-22T04:34:43;38.03;;;15.27;;
20367;SDS011;10343;52.402;9.796;2024-03-22T04:37:11;34.97;;;15.00;;
20367;SDS011;10343;52.402;9.796;2024-03-22T04:39:39;37.97;;;16.27;;
20367;SDS011;10343;52.402;9.796;2024-03-22T04:42:08;41.70;;;17.10;;
20367;SDS011;10343;52.402;9.796;2024-03-22T04:44:35;41.03;;;17.27;;
20367;SDS011;10343;52.402;9.796;2024-03-22T04:47:01;43.72;;;17.23;;
20367;SDS011;10343;52.402;9.796;2024-03-22T04:49:28;40.13;;;16.77;;
20367;SDS011;10343;52.402;9.796;2024-03-22T04:51:54;43.67;;;17.13;;
20367;SDS011;10343;52.402;9.796;2024-03-22T04:54:21;40.55;;;17.67;;
20367;SDS011;10343;52.402;9.796;2024-03-22T04:56:48;39.72;;;16.92;;
20367;SDS011;10343;52.402;9.796;2024-03-22T04:59:16;43.67;;;18.42;;
20367;SDS011;10343;52.402;9.796;2024-03-22T05:01:42;38.50;;;16.30;;
20367;SDS011;10343;52.402;9.796;2024-03-22T05:04:10;38.42;;;15.90;;
20367;SDS011;10343;52.402;9.796;2024-03-22T05:06:36;37.55;;;15.32;;
20367;SDS011;10343;52.402;9.796;2024-03-22T05:09:04;38.33;;;16.23;;
20367;SDS011;10343;52.402;9.796;2024-03-22T05:11:30;38.15;;;14.30;;
20367;SDS011;10343;52.402;9.796;2024-03-22T05:13:57;35.45;;;14.70;;
20367;SDS011;10343;52.402;9.796;2024-03-22T05:16:25;38.80;;;16.17;;
20367;SDS011;10343;52.402;9.796;2024-03-22T05:18:52;40.78;;;16.13;;
20367;SDS011;10343;52.402;9.796;2024-03-22T05:21:18;37.75;;;15.52;;
20367;SDS011;10343;52.402;9.796;2024-03-22T05:23:45;40.70;;;14.32;;
20367;SDS011;10343;52.402;9.796;2024-03-22T05:26:11;38.20;;;14.43;;
20367;SDS011;10343;52.402;9.796;2024-03-22T05:28:38;40.17;;;14.07;;
20367;SDS011;10343;52.402;9.796;2024-03-22T05:31:04;35.15;;;14.73;;
20367;SDS011;10343;52.402;9.796;2024-03-22T05:33:33;38.70;;;15.57;;
20367;SDS011;10343;52.402;9.796;2024-03-22T05:35:59;35.88;;;14.27;;
20367;SDS011;10343;52.402;9.796;2024-03-22T05:38:26;32.67;;;13.82;;
20367;SDS011;10343;52.402;9.796;2024-03-22T05:40:52;36.75;;;15.05;;
20367;SDS011;10343;52.402;9.796;2024-03-22T05:43:19;42.33;;;13.95;;
20367;SDS011;10343;52.402;9.796;2024-03-22T05:45:45;36.35;;;14.10;;
20367;SDS011;10343;52.402;9.796;2024-03-22T05:48:14;35.20;;;13.35;;
20367;SDS011;10343;52.402;9.796;2024-03-22T05:50:41;34.22;;;14.05;;
20367;SDS011;10343;52.402;9.796;2024-03-22T05:53:08;30.70;;;13.48;;
20367;SDS011;10343;52.402;9.796;2024-03-22T05:55:34;29.90;;;12.38;;
20367;SDS011;10343;52.402;9.796;2024-03-22T05:58:02;35.83;;;12.82;;
20367;SDS011;10343;52.402;9.796;2024-03-22T06:00:28;36.78;;;13.30;;
20367;SDS011;10343;52.402;9.796;2024-03-22T06:02:56;31.90;;;13.45;;
20367;SDS011;10343;52.402;9.796;2024-03-22T06:05:22;31.85;;;13.35;;
20367;SDS011;10343;52.402;9.796;2024-03-22T06:07:50;33.40;;;13.02;;
20367;SDS011;10343;52.402;9.796;2024-03-22T06:10:16;33.00;;;11.90;;
20367;SDS011;10343;52.402;9.796;2024-03-22T06:12:43;29.20;;;11.80;;
20367;SDS011;10343;52.402;9.796;2024-03-22T06:15:12;37.25;;;13.32;;
20367;SDS011;10343;52.402;9.796;2024-03-22T06:17:40;33.13;;;11.73;;
20367;SDS011;10343;52.402;9.796;2024-03-22T06:20:07;35.80;;;12.73;;
20367;SDS011;10343;52.402;9.796;2024-03-22T06:22:35;35.72;;;13.13;;
20367;SDS011;10343;52.402;9.796;2024-03-22T06:25:03;32.38;;;11.80;;
20367;SDS011;10343;52.402;9.796;2024-03-22T06:27:30;34.22;;;12.93;;
20367;SDS011;10343;52.402;9.796;2024-03-22T06:29:57;34.47;;;12.68;;
20367;SDS011;10343;52.402;9.796;2024-03-22T06:32:24;36.10;;;12.75;;
20367;SDS011;10343;52.402;9.796;2024-03-22T06:34:50;32.42;;;12.15;;
20367;SDS011;10343;52.402;9.796;2024-03-22T06:37:17;30.45;;;12.75;;
20367;SDS011;10343;52.402;9.796;2024-03-22T06:39:43;30.92;;;11.82;;
20367;SDS011;10343;52.402;9.796;2024-03-22T06:42:11;30.52;;;11.93;;
20367;SDS011;10343;52.402;9.796;2024-03-22T06:44:38;28.23;;;11.25;;
20367;SDS011;10343;52.402;9.796;2024-03-22T06:47:05;32.45;;;11.32;;
20367;SDS011;10343;52.402;9.796;2024-03-22T06:49:32;34.60;;;12.32;;
20367;SDS011;10343;52.402;9.796;2024-03-22T06:51:59;33.63;;;12.15;;
20367;SDS011;10343;52.402;9.796;2024-03-22T06:54:25;30.65;;;10.75;;
20367;SDS011;10343;52.402;9.796;2024-03-22T06:56:52;29.05;;;11.10;;
20367;SDS011;10343;52.402;9.796;2024-03-22T06:59:20;27.30;;;10.43;;
20367;SDS011;10343;52.402;9.796;2024-03-22T07:01:47;28.05;;;9.88;;
20367;SDS011;10343;52.402;9.796;2024-03-22T07:04:14;28.05;;;10.60;;
20367;SDS011;10343;52.402;9.796;2024-03-22T07:06:41;27.02;;;10.68;;
20367;SDS011;10343;52.402;9.796;2024-03-22T07:09:07;32.80;;;10.52;;
20367;SDS011;10343;52.402;9.796;2024-03-22T07:11:35;27.08;;;9.27;;
20367;SDS011;10343;52.402;9.796;2024-03-22T07:14:01;22.92;;;8.05;;
20367;SDS011;10343;52.402;9.796;2024-03-22T07:16:30;30.48;;;10.35;;
20367;SDS011;10343;52.402;9.796;2024-03-22T07:18:56;29.40;;;9.45;;
20367;SDS011;10343;52.402;9.796;2024-03-22T07:21:23;25.70;;;8.23;;
20367;SDS011;10343;52.402;9.796;2024-03-22T07:23:50;25.95;;;8.65;;
20367;SDS011;10343;52.402;9.796;2024-03-22T07:26:17;22.40;;;7.93;;
20367;SDS011;10343;52.402;9.796;2024-03-22T07:28:43;28.63;;;9.20;;
20367;SDS011;10343;52.402;9.796;2024-03-22T07:31:09;23.95;;;4.90;;
20367;SDS011;10343;52.402;9.796;2024-03-22T07:33:37;18.33;;;3.88;;
20367;SDS011;10343;52.402;9.796;2024-03-22T07:36:04;23.45;;;8.73;;
20367;SDS011;10343;52.402;9.796;2024-03-22T07:38:31;18.88;;;6.20;;
20367;SDS011;10343;52.402;9.796;2024-03-22T07:40:58;20.30;;;6.88;;
20367;SDS011;10343;52.402;9.796;2024-03-22T07:43:24;21.73;;;7.18;;
20367;SDS011;10343;52.402;9.796;2024-03-22T07:45:51;18.23;;;4.88;;
20367;SDS011;10343;52.402;9.796;2024-03-22T07:48:17;20.48;;;6.15;;
20367;SDS011;10343;52.402;9.796;2024-03-22T07:50:46;19.60;;;5.45;;
20367;SDS011;10343;52.402;9.796;2024-03-22T07:53:11;18.65;;;5.72;;
20367;SDS011;10343;52.402;9.796;2024-03-22T07:55:39;20.77;;;7.18;;
20367;SDS011;10343;52.402;9.796;2024-03-22T07:58:05;25.63;;;6.50;;
20367;SDS011;10343;52.402;9.796;2024-03-22T08:00:32;24.27;;;5.63;;
20367;SDS011;10343;52.402;9.796;2024-03-22T08:02:58;19.52;;;4.97;;
20367;SDS011;10343;52.402;9.796;2024-03-22T08:05:25;19.25;;;5.82;;
20367;SDS011;10343;52.402;9.796;2024-03-22T08:07:53;20.42;;;6.97;;
20367;SDS011;10343;52.402;9.796;2024-03-22T08:10:19;20.98;;;5.60;;
20367;SDS011;10343;52.402;9.796;2024-03-22T08:12:45;24.75;;;6.55;;
20367;SDS011;10343;52.402;9.796;2024-03-22T08:15:12;23.48;;;6.32;;
20367;SDS011;10343;52.402;9.796;2024-03-22T08:17:38;24.17;;;6.65;;
20367;SDS011;10343;52.402;9.796;2024-03-22T08:20:06;27.00;;;6.13;;
20367;SDS011;10343;52.402;9.796;2024-03-22T08:22:32;20.65;;;4.75;;
20367;SDS011;10343;52.402;9.796;2024-03-22T08:25:01;19.63;;;5.75;;
20367;SDS011;10343;52.402;9.796;2024-03-22T08:27:27;19.60;;;5.50;;
20367;SDS011;10343;52.402;9.796;2024-03-22T08:29:54;21.60;;;6.03;;
20367;SDS011;10343;52.402;9.796;2024-03-22T08:32:20;19.27;;;5.57;;
20367;SDS011;10343;52.402;9.796;2024-03-22T08:34:47;21.88;;;4.53;;
20367;SDS011;10343;52.402;9.796;2024-03-22T08:37:13;21.90;;;5.40;;
20367;SDS011;10343;52.402;9.796;2024-03-22T08:39:40;24.05;;;6.13;;
20367;SDS011;10343;52.402;9.796;2024-03-22T08:42:08;17.65;;;5.32;;
20367;SDS011;10343;52.402;9.796;2024-03-22T08:44:35;18.02;;;5.50;;
20367;SDS011;10343;52.402;9.796;2024-03-22T08:47:01;22.60;;;6.22;;
20367;SDS011;10343;52.402;9.796;2024-03-22T08:49:28;18.63;;;5.15;;
20367;SDS011;10343;52.402;9.796;2024-03-22T08:51:55;20.70;;;6.07;;
20367;SDS011;10343;52.402;9.796;2024-03-22T08:54:22;24.27;;;5.80;;
20367;SDS011;10343;52.402;9.796;2024-03-22T08:56:48;17.08;;;4.10;;
20367;SDS011;10343;52.402;9.796;2024-03-22T08:59:16;20.40;;;5.10;;
20367;SDS011;10343;52.402;9.796;2024-03-22T09:01:42;17.55;;;4.53;;
20367;SDS011;10343;52.402;9.796;2024-03-22T09:04:09;19.27;;;5.75;;
20367;SDS011;10343;52.402;9.796;2024-03-22T09:06:35;14.63;;;4.18;;
20367;SDS011;10343;52.402;9.796;2024-03-22T09:09:02;18.48;;;4.68;;
20367;SDS011;10343;52.402;9.796;2024-03-22T09:11:30;18.65;;;4.38;;
20367;SDS011;10343;52.402;9.796;2024-03-22T09:13:57;13.55;;;3.90;;
20367;SDS011;10343;52.402;9.796;2024-03-22T09:16:25;19.80;;;4.53;;
20367;SDS011;10343;52.402;9.796;2024-03-22T09:18:52;17.55;;;3.97;;
20367;SDS011;10343;52.402;9.796;2024-03-22T09:21:18;20.58;;;3.92;;
20367;SDS011;10343;52.402;9.796;2024-03-22T09:23:44;22.50;;;3.90;;
20367;SDS011;10343;52.402;9.796;2024-03-22T09:26:10;16.73;;;4.60;;
20367;SDS011;10343;52.402;9.796;2024-03-22T09:28:37;20.77;;;4.60;;
20367;SDS011;10343;52.402;9.796;2024-03-22T09:31:04;19.25;;;4.63;;
20367;SDS011;10343;52.402;9.796;2024-03-22T09:33:34;17.35;;;3.92;;
20367;SDS011;10343;52.402;9.796;2024-03-22T09:36:00;17.25;;;2.83;;
20367;SDS011;10343;52.402;9.796;2024-03-22T09:38:27;18.10;;;4.18;;
20367;SDS011;10343;52.402;9.796;2024-03-22T09:40:53;13.38;;;3.28;;
20367;SDS011;10343;52.402;9.796;2024-03-22T09:43:20;13.00;;;2.58;;
20367;SDS011;10343;52.402;9.796;2024-03-22T09:45:47;14.95;;;3.03;;
20367;SDS011;10343;52.402;9.796;2024-03-22T09:48:16;17.33;;;3.63;;
20367;SDS011;10343;52.402;9.796;2024-03-22T09:50:44;15.73;;;3.20;;
20367;SDS011;10343;52.402;9.796;2024-03-22T09:53:13;13.80;;;1.98;;
20367;SDS011;10343;52.402;9.796;2024-03-22T09:55:43;20.60;;;2.83;;
20367;SDS011;10343;52.402;9.796;2024-03-22T09:58:11;15.85;;;2.78;;
20367;SDS011;10343;52.402;9.796;2024-03-22T10:00:39;12.32;;;2.20;;
20367;SDS011;10343;52.402;9.796;2024-03-22T10:03:07;16.05;;;2.65;;
20367;SDS011;10343;52.402;9.796;2024-03-22T10:05:33;14.98;;;2.40;;
20367;SDS011;10343;52.402;9.796;2024-03-22T10:08:02;13.32;;;2.65;;
20367;SDS011;10343;52.402;9.796;2024-03-22T10:10:28;14.55;;;2.17;;
20367;SDS011;10343;52.402;9.796;2024-03-22T10:12:55;18.73;;;2.75;;
20367;SDS011;10343;52.402;9.796;2024-03-22T10:15:23;14.05;;;2.97;;
20367;SDS011;10343;52.402;9.796;2024-03-22T10:17:52;15.30;;;2.83;;
20367;SDS011;10343;52.402;9.796;2024-03-22T10:20:20;14.85;;;2.03;;
20367;SDS011;10343;52.402;9.796;2024-03-22T10:22:47;17.80;;;2.83;;
20367;SDS011;10343;52.402;9.796;2024-03-22T10:25:15;14.07;;;2.97;;
20367;SDS011;10343;52.402;9.796;2024-03-22T10:27:42;13.32;;;2.33;;
20367;SDS011;10343;52.402;9.796;2024-03-22T10:30:09;12.65;;;2.50;;
20367;SDS011;10343;52.402;9.796;2024-03-22T10:32:36;14.23;;;2.50;;
20367;SDS011;10343;52.402;9.796;2024-03-22T10:35:04;14.45;;;2.53;;
20367;SDS011;10343;52.402;9.796;2024-03-22T10:37:35;12.82;;;1.80;;
20367;SDS011;10343;52.402;9.796;2024-03-22T10:40:01;15.52;;;2.35;;
20367;SDS011;10343;52.402;9.796;2024-03-22T10:42:35;14.15;;;2.30;;
20367;SDS011;10343;52.402;9.796;2024-03-22T10:45:03;17.45;;;2.67;;
20367;SDS011;10343;52.402;9.796;2024-03-22T10:47:32;14.00;;;3.03;;
20367;SDS011;10343;52.402;9.796;2024-03-22T10:50:01;13.13;;;2.65;;
20367;SDS011;10343;52.402;9.796;2024-03-22T10:52:32;17.55;;;3.28;;
20367;SDS011;10343;52.402;9.796;2024-03-22T10:55:00;14.05;;;3.22;;
20367;SDS011;10343;52.402;9.796;2024-03-22T10:57:30;13.15;;;2.67;;
20367;SDS011;10343;52.402;9.796;2024-03-22T10:59:58;12.77;;;2.33;;
20367;SDS011;10343;52.402;9.796;2024-03-22T11:02:25;13.20;;;2.28;;
20367;SDS011;10343;52.402;9.796;2024-03-22T11:04:53;13.80;;;2.47;;
20367;SDS011;10343;52.402;9.796;2024-03-22T11:07:22;11.68;;;1.92;;
20367;SDS011;10343;52.402;9.796;2024-03-22T11:09:55;11.70;;;1.65;;
20367;SDS011;10343;52.402;9.796;2024-03-22T11:12:24;15.82;;;2.88;;
20367;SDS011;10343;52.402;9.796;2024-03-22T11:14:51;10.25;;;1.15;;
20367;SDS011;10343;52.402;9.796;2024-03-22T11:17:21;13.20;;;1.98;;
20367;SDS011;10343;52.402;9.796;2024-03-22T11:19:50;14.57;;;3.08;;
20367;SDS011;10343;52.402;9.796;2024-03-22T11:22:18;20.45;;;2.83;;
20367;SDS011;10343;52.402;9.796;2024-03-22T11:24:47;12.50;;;2.55;;
20367;SDS011;10343;52.402;9.796;2024-03-22T11:27:14;14.90;;;2.53;;
20367;SDS011;10343;52.402;9.796;2024-03-22T11:29:42;16.45;;;2.58;;
20367;SDS011;10343;52.402;9.796;2024-03-22T11:32:13;13.40;;;2.03;;
20367;SDS011;10343;52.402;9.796;2024-03-22T11:34:41;10.82;;;2.15;;
20367;SDS011;10343;52.402;9.796;2024-03-22T11:37:12;14.40;;;3.10;;
20367;SDS011;10343;52.402;9.796;2024-03-22T11:39:38;12.45;;;2.30;;
20367;SDS011;10343;52.402;9.796;2024-03-22T11:42:06;13.88;;;2.15;;
20367;SDS011;10343;52.402;9.796;2024-03-22T11:44:35;12.90;;;2.35;;
20367;SDS011;10343;52.402;9.796;2024-03-22T11:47:04;10.50;;;1.88;;
20367;SDS011;10343;52.402;9.796;2024-03-22T11:49:30;12.60;;;2.33;;
20367;SDS011;10343;52.402;9.796;2024-03-22T11:51:58;12.70;;;1.67;;
20367;SDS011;10343;52.402;9.796;2024-03-22T11:54:24;17.08;;;2.15;;
20367;SDS011;10343;52.402;9.796;2024-03-22T11:56:51;11.25;;;1.83;;
20367;SDS011;10343;52.402;9.796;2024-03-22T11:59:20;17.70;;;1.92;;
20367;SDS011;10343;52.402;9.796;2024-03-22T12:01:48;13.50;;;2.28;;
20367;SDS011;10343;52.402;9.796;2024-03-22T12:04:14;19.30;;;3.35;;
20367;SDS011;10343;52.402;9.796;2024-03-22T12:06:42;14.98;;;2.17;;
20367;SDS011;10343;52.402;9.796;2024-03-22T12:09:11;13.05;;;1.88;;
20367;SDS011;10343;52.402;9.796;2024-03-22T12:11:39;16.38;;;3.05;;
20367;SDS011;10343;52.402;9.796;2024-03-22T12:14:08;13.02;;;2.78;;
20367;SDS011;10343;52.402;9.796;2024-03-22T12:16:35;17.88;;;2.95;;
20367;SDS011;10343;52.402;9.796;2024-03-22T12:19:02;13.40;;;3.05;;
20367;SDS011;10343;52.402;9.796;2024-03-22T12:21:29;19.65;;;3.70;;
20367;SDS011;10343;52.402;9.796;2024-03-22T12:23:57;15.30;;;3.63;;
20367;SDS011;10343;52.402;9.796;2024-03-22T12:26:26;17.65;;;3.17;;
20367;SDS011;10343;52.402;9.796;2024-03-22T12:28:52;13.15;;;3.53;;
20367;SDS011;10343;52.402;9.796;2024-03-22T12:31:18;19.92;;;3.85;;
20367;SDS011;10343;52.402;9.796;2024-03-22T12:33:44;14.65;;;4.18;;
20367;SDS011;10343;52.402;9.796;2024-03-22T12:36:12;15.80;;;5.28;;
20367;SDS011;10343;52.402;9.796;2024-03-22T12:38:38;16.52;;;4.78;;
20367;SDS011;10343;52.402;9.796;2024-03-22T12:41:06;19.00;;;5.03;;
20367;SDS011;10343;52.402;9.796;2024-03-22T12:43:34;19.77;;;5.72;;
20367;SDS011;10343;52.402;9.796;2024-03-22T12:46:01;20.23;;;5.82;;
20367;SDS011;10343;52.402;9.796;2024-03-22T12:48:29;25.40;;;5.10;;
20367;SDS011;10343;52.402;9.796;2024-03-22T12:50:56;20.77;;;6.30;;
20367;SDS011;10343;52.402;9.796;2024-03-22T12:53:22;20.75;;;6.20;;
20367;SDS011;10343;52.402;9.796;2024-03-22T12:55:50;18.70;;;5.93;;
20367;SDS011;10343;52.402;9.796;2024-03-22T12:58:16;16.13;;;4.25;;
20367;SDS011;10343;52.402;9.796;2024-03-22T13:00:45;13.88;;;3.60;;
20367;SDS011;10343;52.402;9.796;2024-03-22T13:03:11;14.68;;;4.05;;
20367;SDS011;10343;52.402;9.796;2024-03-22T13:05:41;14.73;;;4.70;;
20367;SDS011;10343;52.402;9.796;2024-03-22T13:08:07;16.05;;;4.85;;
20367;SDS011;10343;52.402;9.796;2024-03-22T13:10:34;16.75;;;4.38;;
20367;SDS011;10343;52.402;9.796;2024-03-22T13:13:00;17.42;;;4.60;;
20367;SDS011;10343;52.402;9.796;2024-03-22T13:15:28;17.05;;;6.47;;
20367;SDS011;10343;52.402;9.796;2024-03-22T13:17:58;15.73;;;5.07;;
20367;SDS011;10343;52.402;9.796;2024-03-22T13:20:24;18.00;;;5.22;;
20367;SDS011;10343;52.402;9.796;2024-03-22T13:22:50;16.58;;;5.20;;
20367;SDS011;10343;52.402;9.796;2024-03-22T13:25:17;22.70;;;5.57;;
20367;SDS011;10343;52.402;9.796;2024-03-22T13:27:44;16.42;;;5.05;;
20367;SDS011;10343;52.402;9.796;2024-03-22T13:30:11;16.98;;;3.30;;
20367;SDS011;10343;52.402;9.796;2024-03-22T13:32:40;17.70;;;4.72;;
20367;SDS011;10343;52.402;9.796;2024-03-22T13:35:11;14.57;;;3.65;;
20367;SDS011;10343;52.402;9.796;2024-03-22T13:37:37;10.93;;;2.60;;
20367;SDS011;10343;52.402;9.796;2024-03-22T13:40:04;12.32;;;2.67;;
20367;SDS011;10343;52.402;9.796;2024-03-22T13:42:31;13.80;;;3.80;;
20367;SDS011;10343;52.402;9.796;2024-03-22T13:44:59;17.10;;;3.10;;
20367;SDS011;10343;52.402;9.796;2024-03-22T13:47:25;15.63;;;5.07;;
20367;SDS011;10343;52.402;9.796;2024-03-22T13:49:53;11.55;;;2.92;;
20367;SDS011;10343;52.402;9.796;2024-03-22T13:52:20;15.63;;;3.00;;
20367;SDS011;10343;52.402;9.796;2024-03-22T13:54:47;31.67;;;13.65;;
20367;SDS011;10343;52.402;9.796;2024-03-22T13:57:13;14.23;;;2.80;;
20367;SDS011;10343;52.402;9.796;2024-03-22T13:59:40;16.90;;;3.45;;
20367;SDS011;10343;52.402;9.796;2024-03-22T14:02:06;16.45;;;3.38;;
20367;SDS011;10343;52.402;9.796;2024-03-22T14:04:34;14.82;;;2.88;;
20367;SDS011;10343;52.402;9.796;2024-03-22T14:07:00;11.73;;;2.85;;
20367;SDS011;10343;52.402;9.796;2024-03-22T14:09:31;13.80;;;3.00;;
20367;SDS011;10343;52.402;9.796;2024-03-22T14:11:58;15.60;;;2.33;;
20367;SDS011;10343;52.402;9.796;2024-03-22T14:14:25;15.38;;;3.53;;
20367;SDS011;10343;52.402;9.796;2024-03-22T14:16:51;13.15;;;3.53;;
20367;SDS011;10343;52.402;9.796;2024-03-22T14:19:18;13.35;;;3.35;;
20367;SDS011;10343;52.402;9.796;2024-03-22T14:21:44;12.05;;;2.75;;
20367;SDS011;10343;52.402;9.796;2024-03-22T14:24:13;12.15;;;3.08;;
20367;SDS011;10343;52.402;9.796;2024-03-22T14:26:44;14.50;;;3.88;;
20367;SDS011;10343;52.402;9.796;2024-03-22T14:29:11;19.83;;;5.35;;